AirNav   TITAN Aviation Fuels
 
 446 users online  

43I Mississinewa Reservoir Landing Area Seaplane Base
Peru, Indiana, USA

GOING TO PERU?


FAA INFORMATION EFFECTIVE 22 APRIL 2021

Location

FAA Identifier: 43I
Lat/Long: 40-42-13.1500N 085-55-56.9570W
40-42.219167N 085-55.949283W
40.7036528,-85.9324881
(estimated)
Elevation: 737 ft. / 225 m (estimated)
Variation: 03W (1985)
From city: 6 miles SE of PERU, IN
Time zone: UTC -4 (UTC -5 during Standard Time)
Zip code: 46911

Seaplane Base Operations

Seaplane Base use: Open to the public
Activation date: 06/1980
Control tower: no
ARTCC: CHICAGO CENTER
FSS: TERRE HAUTE FLIGHT SERVICE STATION
NOTAMs facility: HUF (NOTAM-D service available)
Attendance: UNATNDD
Segmented circle: no

Seaplane Base Communications

CTAF: 122.9
WX AWOS-3PT at OKK (12 nm SW): 113.5 (765-452-3014)
WX AWOS-3 at MZZ (17 nm SE): 108.6 (765-674-1317)

Nearby radio navigation aids

VOR radial/distance  VOR name  Freq  Var
GUSr073/10.6GRISSOM VORTAC108.4502W
OKKr033/12.0KOKOMO VORTAC113.5005W
MZZr321/17.1MARION VOR/DME108.6003W
MIEr322/37.2MUNCIE VOR/DME114.4003W
FWAr250/37.6FORT WAYNE VORTAC117.8006W
OLKr214/(38.1)WEBSTER LAKE VOR110.4003W

Seaplane Base Services

Runway Information

Runway NW/SE

Dimensions: 14500 x 1000 ft. / 4420 x 305 m
Surface: water, in good condition
RUNWAY NW  RUNWAY SE
Traffic pattern: leftleft

Seaplane Base Ownership and Management from official FAA records

Ownership: Publicly-owned
Owner: DEPT OF NATURAL RESOURCES
402 W. WASHINGTON ST.
INDIANAPOLIS, IN 46204
Phone (317) 232-0935
Manager: LT. KENTON TURNER
402 W. WASHINGTON ST.
INDIANAPOLIS, IN 46204
Phone (317) 232-0935

Seaplane Base Operational Statistics

Aircraft operations: 25/year *
100% transient general aviation
* for 12-month period ending 31 December 2018

Additional Remarks

SEAPLANE OPNS PROHIBITED BETWEEN SS & SR.
INGRESS/EGRESS SHD BE COORDD WITH GRISSOM AFB APP CTL 120.0.
LAKE USE PERMIT REQUIRED. CALL 765 473-6528.
FOR CD CTC CHICAGO ARTCC AT 630-906-8921.

Instrument Procedures

There are no published instrument procedures at 43I.

Some nearby airports with instrument procedures:

KIWH - Wabash Municipal Airport (7 nm NE)
KGUS - Grissom Air Reserve Base (11 nm W)
I76 - Peru Municipal Airport (11 nm NW)
KOKK - Kokomo Municipal Airport (12 nm SW)
KMZZ - Marion Municipal Airport - McKinney Field (17 nm SE)
 
Loc | Ops | Rwys | IFR | FBO | Links
Com | Nav | Svcs | Stats | Notes
Area around 43I (Mississinewa Reservoir Landing Area Seaplane Base)
 
Road maps at: MapQuest Bing Google
 
Aerial photo
No photo
 
Sectional chart

 
Airport distance calculator
Flying to Mississinewa Reservoir Landing Area Seaplane Base? Find the distance to fly.

From to 43I

Sunrise and sunset
Times for 15-May-2021
 Local
(UTC-4)
 Zulu
(UTC)
Morning civil twilight05:5709:57
Sunrise06:2810:28
Sunset20:5300:53
Evening civil twilight21:2401:24

Current date and time
Zulu (UTC)  15-May-2021 08:32:52
Local (UTC-4)  15-May-2021 04:32:52
 
METAR
KGUS 
11nm SW 
150756Z AUTO 00000KT 10SM BKN090 BKN170 09/04 A3023 RMK AO2 SLP240 T00910035 $
KOKK 
12nm SW 
150756Z AUTO 00000KT 10SM OVC090 09/06 A3025 RMK AO2 SLP243 T00890061
KMZZ 
17nm SE 
150815Z AUTO 00000KT 10SM SCT090 08/05 A3026 RMK AO2 T00790049
KGGP 
20nm W 
150815Z AUTO 00000KT 10SM CLR 08/03 A3026 RMK AO2
TAF
KGUS 
11nm SW 
142100Z 1421/1603 VRB06KT 9999 FEW090 QNH3019INS BECMG 1516/1517 20010G18KT 9999 FEW090 SCT130 BKN170 QNH3014INS BECMG 1523/1524 VRB06KT 9999 BKN065 OVC090 QNH3012INS TX21/1421Z TN07/1510Z LAST NO AMDS AFT 1503 NEXT 1513
NOTAMs
Click for the latest NOTAMs
NOTAMs are issued by the DoD/FAA and will open in a separate window not controlled by AirNav.

 

 
 

Would you like to see your business listed on this page?

 If your business provides an interesting product or service to pilots, flight crews, aircraft, or users of the Mississinewa Reservoir Landing Area Seaplane Base, you should consider listing it here.  To start the listing process, click on the button below
 
Add a business
 

Other Pages about Mississinewa Reservoir Landing Area Seaplane Base

Update a link
 
Copyright © AirNav, LLC. All rights reserved. Privacy Policy  Contact